sensor_id;sensor_type;location;lat;lon;timestamp;pressure;altitude;pressure_sealevel;temperature;humidity
23733;BME280;12047;53.450;-2.286;2023-12-14T00:02:54;101451.78;;;7.20;100.00
23733;BME280;12047;53.450;-2.286;2023-12-14T00:07:55;101439.16;;;6.98;100.00
23733;BME280;12047;53.450;-2.286;2023-12-14T00:12:55;101445.00;;;7.30;100.00
23733;BME280;12047;53.450;-2.286;2023-12-14T00:17:56;101430.22;;;6.01;100.00
23733;BME280;12047;53.450;-2.286;2023-12-14T00:22:56;101430.53;;;6.10;100.00
23733;BME280;12047;53.450;-2.286;2023-12-14T00:27:56;101435.72;;;6.40;100.00
23733;BME280;12047;53.450;-2.286;2023-12-14T00:32:57;101440.34;;;6.37;100.00
23733;BME280;12047;53.450;-2.286;2023-12-14T00:37:57;101420.84;;;6.25;100.00
23733;BME280;12047;53.450;-2.286;2023-12-14T00:42:58;101417.75;;;6.33;100.00
23733;BME280;12047;53.450;-2.286;2023-12-14T00:47:58;101407.44;;;6.16;100.00
23733;BME280;12047;53.450;-2.286;2023-12-14T00:52:59;101413.00;;;6.95;100.00
23733;BME280;12047;53.450;-2.286;2023-12-14T00:57:59;101402.41;;;6.82;100.00
23733;BME280;12047;53.450;-2.286;2023-12-14T01:03:00;101401.78;;;6.64;100.00
23733;BME280;12047;53.450;-2.286;2023-12-14T01:08:00;101401.22;;;6.59;100.00
23733;BME280;12047;53.450;-2.286;2023-12-14T01:13:01;101392.91;;;6.79;100.00
23733;BME280;12047;53.450;-2.286;2023-12-14T01:18:01;101392.00;;;6.52;100.00
23733;BME280;12047;53.450;-2.286;2023-12-14T01:23:02;101395.25;;;6.84;100.00
23733;BME280;12047;53.450;-2.286;2023-12-14T01:28:02;101380.25;;;7.65;100.00
23733;BME280;12047;53.450;-2.286;2023-12-14T01:33:03;101399.88;;;7.74;100.00
23733;BME280;12047;53.450;-2.286;2023-12-14T01:38:03;101400.00;;;7.06;100.00
23733;BME280;12047;53.450;-2.286;2023-12-14T01:43:09;101400.91;;;6.78;100.00
23733;BME280;12047;53.450;-2.286;2023-12-14T01:48:10;101403.22;;;7.24;100.00
23733;BME280;12047;53.450;-2.286;2023-12-14T01:53:11;101408.47;;;7.50;100.00
23733;BME280;12047;53.450;-2.286;2023-12-14T01:58:11;101402.44;;;7.09;100.00
23733;BME280;12047;53.450;-2.286;2023-12-14T02:03:12;101407.56;;;6.83;100.00
23733;BME280;12047;53.450;-2.286;2023-12-14T02:08:13;101417.44;;;7.48;100.00
23733;BME280;12047;53.450;-2.286;2023-12-14T02:13:13;101407.31;;;7.15;100.00
23733;BME280;12047;53.450;-2.286;2023-12-14T02:18:14;101401.94;;;6.47;100.00
23733;BME280;12047;53.450;-2.286;2023-12-14T02:23:14;101406.06;;;6.79;100.00
23733;BME280;12047;53.450;-2.286;2023-12-14T02:28:15;101415.78;;;7.60;100.00
23733;BME280;12047;53.450;-2.286;2023-12-14T02:33:15;101412.72;;;7.26;100.00
23733;BME280;12047;53.450;-2.286;2023-12-14T02:38:15;101390.84;;;6.70;100.00
23733;BME280;12047;53.450;-2.286;2023-12-14T02:43:16;101405.91;;;7.09;100.00
23733;BME280;12047;53.450;-2.286;2023-12-14T02:48:16;101389.59;;;7.17;100.00
23733;BME280;12047;53.450;-2.286;2023-12-14T02:53:17;101385.50;;;6.99;100.00
23733;BME280;12047;53.450;-2.286;2023-12-14T02:58:18;101379.91;;;7.18;100.00
23733;BME280;12047;53.450;-2.286;2023-12-14T03:03:19;101369.84;;;7.10;100.00
23733;BME280;12047;53.450;-2.286;2023-12-14T03:08:20;101360.50;;;6.65;100.00
23733;BME280;12047;53.450;-2.286;2023-12-14T03:13:20;101361.91;;;8.02;100.00
23733;BME280;12047;53.450;-2.286;2023-12-14T03:18:20;101366.56;;;8.11;100.00
23733;BME280;12047;53.450;-2.286;2023-12-14T03:23:21;101371.16;;;7.57;100.00
23733;BME280;12047;53.450;-2.286;2023-12-14T03:28:21;101359.22;;;7.11;100.00
23733;BME280;12047;53.450;-2.286;2023-12-14T03:33:22;101360.75;;;8.06;100.00
23733;BME280;12047;53.450;-2.286;2023-12-14T03:38:22;101358.72;;;7.71;100.00
23733;BME280;12047;53.450;-2.286;2023-12-14T03:43:23;101365.38;;;8.02;100.00
23733;BME280;12047;53.450;-2.286;2023-12-14T03:48:23;101372.91;;;8.34;100.00
23733;BME280;12047;53.450;-2.286;2023-12-14T03:53:24;101368.75;;;8.42;100.00
23733;BME280;12047;53.450;-2.286;2023-12-14T03:58:24;101362.09;;;8.49;100.00
23733;BME280;12047;53.450;-2.286;2023-12-14T04:03:25;101363.56;;;8.28;100.00
23733;BME280;12047;53.450;-2.286;2023-12-14T04:08:26;101369.66;;;9.03;100.00
23733;BME280;12047;53.450;-2.286;2023-12-14T04:13:27;101358.63;;;8.85;100.00
23733;BME280;12047;53.450;-2.286;2023-12-14T04:18:27;101357.75;;;8.48;100.00
23733;BME280;12047;53.450;-2.286;2023-12-14T04:23:28;101352.69;;;8.58;100.00
23733;BME280;12047;53.450;-2.286;2023-12-14T04:28:29;101352.91;;;8.30;100.00
23733;BME280;12047;53.450;-2.286;2023-12-14T04:33:29;101349.00;;;8.84;100.00
23733;BME280;12047;53.450;-2.286;2023-12-14T04:38:29;101339.19;;;8.86;100.00
23733;BME280;12047;53.450;-2.286;2023-12-14T04:43:30;101336.34;;;8.28;100.00
23733;BME280;12047;53.450;-2.286;2023-12-14T04:48:32;101336.44;;;8.75;100.00
23733;BME280;12047;53.450;-2.286;2023-12-14T04:53:32;101327.63;;;9.35;100.00
23733;BME280;12047;53.450;-2.286;2023-12-14T04:58:33;101332.34;;;9.54;100.00
23733;BME280;12047;53.450;-2.286;2023-12-14T05:03:35;101325.56;;;9.04;100.00
23733;BME280;12047;53.450;-2.286;2023-12-14T05:08:35;101322.25;;;9.13;100.00
23733;BME280;12047;53.450;-2.286;2023-12-14T05:13:36;101326.72;;;9.00;100.00
23733;BME280;12047;53.450;-2.286;2023-12-14T05:18:36;101335.84;;;8.96;100.00
23733;BME280;12047;53.450;-2.286;2023-12-14T05:23:37;101320.88;;;9.31;100.00
23733;BME280;12047;53.450;-2.286;2023-12-14T05:28:38;101329.03;;;9.28;100.00
23733;BME280;12047;53.450;-2.286;2023-12-14T05:33:39;101332.69;;;9.38;100.00
23733;BME280;12047;53.450;-2.286;2023-12-14T05:38:40;101337.06;;;9.62;100.00
23733;BME280;12047;53.450;-2.286;2023-12-14T05:43:41;101330.81;;;9.63;100.00
23733;BME280;12047;53.450;-2.286;2023-12-14T05:48:41;101331.81;;;9.03;100.00
23733;BME280;12047;53.450;-2.286;2023-12-14T05:53:42;101335.22;;;9.16;100.00
23733;BME280;12047;53.450;-2.286;2023-12-14T05:58:42;101340.97;;;9.45;100.00
23733;BME280;12047;53.450;-2.286;2023-12-14T06:03:43;101330.78;;;9.51;100.00
23733;BME280;12047;53.450;-2.286;2023-12-14T06:08:45;101321.63;;;9.09;100.00
23733;BME280;12047;53.450;-2.286;2023-12-14T06:13:45;101325.69;;;9.37;100.00
23733;BME280;12047;53.450;-2.286;2023-12-14T06:18:45;101327.06;;;9.54;100.00
23733;BME280;12047;53.450;-2.286;2023-12-14T06:23:47;101323.56;;;9.53;100.00
23733;BME280;12047;53.450;-2.286;2023-12-14T06:28:47;101322.81;;;9.98;100.00
23733;BME280;12047;53.450;-2.286;2023-12-14T06:33:48;101323.78;;;10.19;100.00
23733;BME280;12047;53.450;-2.286;2023-12-14T06:38:48;101326.53;;;10.06;100.00
23733;BME280;12047;53.450;-2.286;2023-12-14T06:43:50;101324.16;;;10.14;100.00
23733;BME280;12047;53.450;-2.286;2023-12-14T06:48:51;101323.38;;;9.90;100.00
23733;BME280;12047;53.450;-2.286;2023-12-14T06:53:52;101327.03;;;10.45;100.00
23733;BME280;12047;53.450;-2.286;2023-12-14T06:58:52;101318.97;;;10.57;100.00
23733;BME280;12047;53.450;-2.286;2023-12-14T07:03:53;101326.03;;;10.68;100.00
23733;BME280;12047;53.450;-2.286;2023-12-14T07:08:53;101320.28;;;9.85;100.00
23733;BME280;12047;53.450;-2.286;2023-12-14T07:13:54;101328.63;;;10.25;100.00
23733;BME280;12047;53.450;-2.286;2023-12-14T07:18:54;101325.09;;;10.47;100.00
23733;BME280;12047;53.450;-2.286;2023-12-14T07:23:55;101320.53;;;10.60;100.00
23733;BME280;12047;53.450;-2.286;2023-12-14T07:28:55;101330.88;;;10.63;100.00
23733;BME280;12047;53.450;-2.286;2023-12-14T07:33:56;101336.06;;;10.53;100.00
23733;BME280;12047;53.450;-2.286;2023-12-14T07:38:56;101338.84;;;10.41;100.00
23733;BME280;12047;53.450;-2.286;2023-12-14T07:43:57;101336.69;;;10.35;100.00
23733;BME280;12047;53.450;-2.286;2023-12-14T07:48:58;101339.69;;;10.30;100.00
23733;BME280;12047;53.450;-2.286;2023-12-14T07:53:59;101346.78;;;10.07;100.00
23733;BME280;12047;53.450;-2.286;2023-12-14T07:58:59;101356.19;;;10.45;100.00
23733;BME280;12047;53.450;-2.286;2023-12-14T08:04:00;101350.53;;;10.27;100.00
23733;BME280;12047;53.450;-2.286;2023-12-14T08:09:00;101356.84;;;9.91;100.00
23733;BME280;12047;53.450;-2.286;2023-12-14T08:14:01;101360.00;;;10.07;100.00
23733;BME280;12047;53.450;-2.286;2023-12-14T08:19:01;101360.91;;;10.30;100.00
23733;BME280;12047;53.450;-2.286;2023-12-14T08:24:02;101374.00;;;10.54;100.00
23733;BME280;12047;53.450;-2.286;2023-12-14T08:29:03;101369.31;;;10.46;100.00
23733;BME280;12047;53.450;-2.286;2023-12-14T08:34:03;101372.22;;;10.54;100.00
23733;BME280;12047;53.450;-2.286;2023-12-14T08:39:04;101384.16;;;10.38;100.00
23733;BME280;12047;53.450;-2.286;2023-12-14T08:44:04;101379.56;;;10.62;100.00
23733;BME280;12047;53.450;-2.286;2023-12-14T08:49:05;101377.72;;;10.40;100.00
23733;BME280;12047;53.450;-2.286;2023-12-14T08:54:05;101393.09;;;11.02;100.00
23733;BME280;12047;53.450;-2.286;2023-12-14T08:59:06;101402.28;;;10.87;100.00
23733;BME280;12047;53.450;-2.286;2023-12-14T09:04:07;101407.47;;;10.88;100.00
23733;BME280;12047;53.450;-2.286;2023-12-14T09:09:08;101400.38;;;10.78;100.00
23733;BME280;12047;53.450;-2.286;2023-12-14T09:14:08;101401.16;;;11.12;100.00
23733;BME280;12047;53.450;-2.286;2023-12-14T09:19:09;101411.38;;;11.16;100.00
23733;BME280;12047;53.450;-2.286;2023-12-14T09:24:09;101410.94;;;11.00;100.00
23733;BME280;12047;53.450;-2.286;2023-12-14T09:29:10;101426.03;;;11.64;100.00
23733;BME280;12047;53.450;-2.286;2023-12-14T09:34:10;101436.97;;;11.49;100.00
23733;BME280;12047;53.450;-2.286;2023-12-14T09:39:11;101450.72;;;11.43;100.00
23733;BME280;12047;53.450;-2.286;2023-12-14T09:44:12;101452.38;;;11.55;100.00
23733;BME280;12047;53.450;-2.286;2023-12-14T09:49:13;101458.75;;;11.96;100.00
23733;BME280;12047;53.450;-2.286;2023-12-14T09:54:14;101472.53;;;11.90;100.00
23733;BME280;12047;53.450;-2.286;2023-12-14T09:59:14;101483.88;;;12.13;100.00
23733;BME280;12047;53.450;-2.286;2023-12-14T10:04:17;101496.00;;;11.74;100.00
23733;BME280;12047;53.450;-2.286;2023-12-14T10:09:22;101522.72;;;11.61;100.00
23733;BME280;12047;53.450;-2.286;2023-12-14T10:14:24;101525.59;;;11.80;100.00
23733;BME280;12047;53.450;-2.286;2023-12-14T10:19:25;101518.03;;;12.38;100.00
23733;BME280;12047;53.450;-2.286;2023-12-14T10:24:26;101516.22;;;12.18;100.00
23733;BME280;12047;53.450;-2.286;2023-12-14T10:29:27;101540.56;;;12.34;100.00
23733;BME280;12047;53.450;-2.286;2023-12-14T10:34:27;101547.16;;;12.40;100.00
23733;BME280;12047;53.450;-2.286;2023-12-14T10:39:29;101551.06;;;12.56;100.00
23733;BME280;12047;53.450;-2.286;2023-12-14T10:44:30;101565.38;;;12.23;100.00
23733;BME280;12047;53.450;-2.286;2023-12-14T10:49:34;101559.94;;;12.25;100.00
23733;BME280;12047;53.450;-2.286;2023-12-14T10:54:37;101543.91;;;12.15;100.00
23733;BME280;12047;53.450;-2.286;2023-12-14T10:59:41;101560.47;;;12.60;100.00
23733;BME280;12047;53.450;-2.286;2023-12-14T11:04:56;101569.53;;;13.09;100.00
23733;BME280;12047;53.450;-2.286;2023-12-14T11:09:59;101560.06;;;12.86;100.00
23733;BME280;12047;53.450;-2.286;2023-12-14T11:14:59;101560.97;;;12.75;100.00
23733;BME280;12047;53.450;-2.286;2023-12-14T11:20:26;101557.50;;;13.15;100.00
23733;BME280;12047;53.450;-2.286;2023-12-14T11:25:27;101564.75;;;12.52;100.00
23733;BME280;12047;53.450;-2.286;2023-12-14T11:30:28;101562.09;;;13.03;100.00
23733;BME280;12047;53.450;-2.286;2023-12-14T11:35:28;101581.78;;;12.70;100.00
23733;BME280;12047;53.450;-2.286;2023-12-14T11:40:29;101579.03;;;13.02;100.00
23733;BME280;12047;53.450;-2.286;2023-12-14T11:45:29;101572.53;;;13.16;100.00
23733;BME280;12047;53.450;-2.286;2023-12-14T11:50:30;101574.44;;;12.83;100.00
23733;BME280;12047;53.450;-2.286;2023-12-14T11:55:32;101576.72;;;13.49;100.00
23733;BME280;12047;53.450;-2.286;2023-12-14T12:00:33;101582.88;;;13.49;100.00
23733;BME280;12047;53.450;-2.286;2023-12-14T12:05:54;101583.81;;;13.39;100.00
23733;BME280;12047;53.450;-2.286;2023-12-14T12:10:56;101583.47;;;13.62;100.00
23733;BME280;12047;53.450;-2.286;2023-12-14T12:15:57;101591.56;;;13.51;100.00
23733;BME280;12047;53.450;-2.286;2023-12-14T12:20:57;101591.13;;;13.46;100.00
23733;BME280;12047;53.450;-2.286;2023-12-14T12:26:04;101598.47;;;13.63;100.00
23733;BME280;12047;53.450;-2.286;2023-12-14T12:31:05;101603.38;;;13.68;100.00
23733;BME280;12047;53.450;-2.286;2023-12-14T12:36:06;101602.84;;;13.74;100.00
23733;BME280;12047;53.450;-2.286;2023-12-14T12:41:06;101607.34;;;13.74;100.00
23733;BME280;12047;53.450;-2.286;2023-12-14T12:46:07;101612.56;;;13.85;100.00
23733;BME280;12047;53.450;-2.286;2023-12-14T12:51:07;101615.34;;;13.93;100.00
23733;BME280;12047;53.450;-2.286;2023-12-14T12:56:08;101624.94;;;14.05;100.00
23733;BME280;12047;53.450;-2.286;2023-12-14T13:01:08;101631.22;;;14.04;100.00
23733;BME280;12047;53.450;-2.286;2023-12-14T13:06:09;101629.28;;;14.25;100.00
23733;BME280;12047;53.450;-2.286;2023-12-14T13:11:09;101627.31;;;14.18;100.00
23733;BME280;12047;53.450;-2.286;2023-12-14T13:16:10;101635.88;;;14.21;100.00
23733;BME280;12047;53.450;-2.286;2023-12-14T13:21:14;101637.75;;;14.50;100.00
23733;BME280;12047;53.450;-2.286;2023-12-14T13:26:14;101646.09;;;14.16;100.00
23733;BME280;12047;53.450;-2.286;2023-12-14T13:31:15;101640.81;;;14.74;100.00
23733;BME280;12047;53.450;-2.286;2023-12-14T13:36:15;101652.31;;;14.84;100.00
23733;BME280;12047;53.450;-2.286;2023-12-14T13:41:16;101670.41;;;14.33;100.00
23733;BME280;12047;53.450;-2.286;2023-12-14T13:46:16;101677.31;;;14.45;100.00
23733;BME280;12047;53.450;-2.286;2023-12-14T13:51:17;101685.03;;;14.67;100.00
23733;BME280;12047;53.450;-2.286;2023-12-14T13:56:17;101682.09;;;14.70;100.00
23733;BME280;12047;53.450;-2.286;2023-12-14T14:01:18;101686.56;;;14.41;100.00
23733;BME280;12047;53.450;-2.286;2023-12-14T14:06:18;101690.41;;;13.98;100.00
23733;BME280;12047;53.450;-2.286;2023-12-14T14:11:21;101705.63;;;14.36;100.00
23733;BME280;12047;53.450;-2.286;2023-12-14T14:16:22;101716.19;;;13.57;100.00
23733;BME280;12047;53.450;-2.286;2023-12-14T14:21:23;101696.38;;;13.81;100.00
23733;BME280;12047;53.450;-2.286;2023-12-14T14:26:23;101708.03;;;13.80;100.00
23733;BME280;12047;53.450;-2.286;2023-12-14T14:31:24;101716.38;;;14.15;100.00
23733;BME280;12047;53.450;-2.286;2023-12-14T14:36:24;101724.16;;;14.28;100.00
23733;BME280;12047;53.450;-2.286;2023-12-14T14:41:25;101736.13;;;14.62;100.00
23733;BME280;12047;53.450;-2.286;2023-12-14T14:46:25;101743.03;;;14.55;100.00
23733;BME280;12047;53.450;-2.286;2023-12-14T14:51:26;101748.50;;;14.54;100.00
23733;BME280;12047;53.450;-2.286;2023-12-14T14:56:27;101761.25;;;14.50;100.00
23733;BME280;12047;53.450;-2.286;2023-12-14T15:01:27;101765.50;;;14.72;100.00
23733;BME280;12047;53.450;-2.286;2023-12-14T15:06:28;101784.69;;;14.47;100.00
23733;BME280;12047;53.450;-2.286;2023-12-14T15:11:28;101796.63;;;14.43;100.00
23733;BME280;12047;53.450;-2.286;2023-12-14T15:16:29;101806.34;;;14.23;100.00
23733;BME280;12047;53.450;-2.286;2023-12-14T15:21:29;101815.63;;;14.59;100.00
23733;BME280;12047;53.450;-2.286;2023-12-14T15:26:30;101827.16;;;14.39;100.00
23733;BME280;12047;53.450;-2.286;2023-12-14T15:31:32;101842.94;;;14.42;100.00
23733;BME280;12047;53.450;-2.286;2023-12-14T15:36:33;101841.09;;;14.12;100.00
23733;BME280;12047;53.450;-2.286;2023-12-14T15:41:37;101856.34;;;14.30;100.00
23733;BME280;12047;53.450;-2.286;2023-12-14T15:46:37;101853.28;;;14.35;100.00
23733;BME280;12047;53.450;-2.286;2023-12-14T15:51:41;101863.63;;;14.59;100.00
23733;BME280;12047;53.450;-2.286;2023-12-14T15:56:41;101870.06;;;14.26;100.00
23733;BME280;12047;53.450;-2.286;2023-12-14T16:01:42;101870.97;;;14.06;100.00
23733;BME280;12047;53.450;-2.286;2023-12-14T16:06:43;101875.94;;;14.20;100.00
23733;BME280;12047;53.450;-2.286;2023-12-14T16:11:44;101879.78;;;14.37;100.00
23733;BME280;12047;53.450;-2.286;2023-12-14T16:16:44;101876.78;;;14.20;100.00
23733;BME280;12047;53.450;-2.286;2023-12-14T16:21:45;101880.38;;;14.10;100.00
23733;BME280;12047;53.450;-2.286;2023-12-14T16:26:45;101887.13;;;14.14;100.00
23733;BME280;12047;53.450;-2.286;2023-12-14T16:31:48;101896.34;;;14.30;100.00
23733;BME280;12047;53.450;-2.286;2023-12-14T16:36:49;101926.22;;;13.83;100.00
23733;BME280;12047;53.450;-2.286;2023-12-14T16:41:50;101939.00;;;13.68;100.00
23733;BME280;12047;53.450;-2.286;2023-12-14T16:46:53;101956.16;;;13.96;100.00
23733;BME280;12047;53.450;-2.286;2023-12-14T16:51:56;101966.16;;;13.19;100.00
23733;BME280;12047;53.450;-2.286;2023-12-14T16:56:57;101985.63;;;12.64;100.00
23733;BME280;12047;53.450;-2.286;2023-12-14T17:01:58;101989.72;;;13.23;100.00
23733;BME280;12047;53.450;-2.286;2023-12-14T17:06:59;101994.22;;;13.23;100.00
23733;BME280;12047;53.450;-2.286;2023-12-14T17:12:00;102000.63;;;13.63;100.00
23733;BME280;12047;53.450;-2.286;2023-12-14T17:17:00;101999.66;;;13.65;100.00
23733;BME280;12047;53.450;-2.286;2023-12-14T17:22:01;102003.97;;;13.77;100.00
23733;BME280;12047;53.450;-2.286;2023-12-14T17:27:12;102010.81;;;14.11;100.00
23733;BME280;12047;53.450;-2.286;2023-12-14T17:37:28;102020.72;;;13.68;100.00
23733;BME280;12047;53.450;-2.286;2023-12-14T17:42:29;102027.50;;;14.24;100.00
23733;BME280;12047;53.450;-2.286;2023-12-14T17:47:30;102032.25;;;13.89;100.00
23733;BME280;12047;53.450;-2.286;2023-12-14T17:52:30;102047.22;;;13.69;100.00
23733;BME280;12047;53.450;-2.286;2023-12-14T17:57:31;102068.25;;;13.07;100.00
23733;BME280;12047;53.450;-2.286;2023-12-14T18:02:31;102075.00;;;13.44;100.00
23733;BME280;12047;53.450;-2.286;2023-12-14T18:07:32;102077.06;;;13.52;100.00
23733;BME280;12047;53.450;-2.286;2023-12-14T18:12:32;102089.56;;;13.29;100.00
23733;BME280;12047;53.450;-2.286;2023-12-14T18:17:33;102094.50;;;13.22;100.00
23733;BME280;12047;53.450;-2.286;2023-12-14T18:22:36;102097.72;;;12.92;100.00
23733;BME280;12047;53.450;-2.286;2023-12-14T18:27:37;102114.13;;;13.33;100.00
23733;BME280;12047;53.450;-2.286;2023-12-14T18:32:37;102124.28;;;13.27;100.00
23733;BME280;12047;53.450;-2.286;2023-12-14T18:37:38;102136.75;;;13.27;100.00
23733;BME280;12047;53.450;-2.286;2023-12-14T18:42:38;102136.47;;;13.08;100.00
23733;BME280;12047;53.450;-2.286;2023-12-14T18:47:39;102137.47;;;13.40;100.00
23733;BME280;12047;53.450;-2.286;2023-12-14T18:52:39;102152.69;;;13.38;100.00
23733;BME280;12047;53.450;-2.286;2023-12-14T18:57:40;102160.84;;;12.79;100.00
23733;BME280;12047;53.450;-2.286;2023-12-14T19:02:43;102168.31;;;12.39;100.00
23733;BME280;12047;53.450;-2.286;2023-12-14T19:07:43;102169.91;;;12.88;100.00
23733;BME280;12047;53.450;-2.286;2023-12-14T19:12:45;102176.97;;;12.65;100.00
23733;BME280;12047;53.450;-2.286;2023-12-14T19:17:45;102180.53;;;13.23;100.00
23733;BME280;12047;53.450;-2.286;2023-12-14T19:22:46;102169.91;;;12.77;100.00
23733;BME280;12047;53.450;-2.286;2023-12-14T19:27:46;102193.38;;;13.29;100.00
23733;BME280;12047;53.450;-2.286;2023-12-14T19:32:52;102196.41;;;13.24;100.00
23733;BME280;12047;53.450;-2.286;2023-12-14T19:37:52;102214.13;;;13.13;100.00
23733;BME280;12047;53.450;-2.286;2023-12-14T19:42:53;102217.56;;;13.26;100.00
23733;BME280;12047;53.450;-2.286;2023-12-14T19:47:54;102219.09;;;12.71;100.00
23733;BME280;12047;53.450;-2.286;2023-12-14T19:52:56;102222.47;;;13.08;100.00
23733;BME280;12047;53.450;-2.286;2023-12-14T19:58:03;102223.78;;;12.68;100.00
23733;BME280;12047;53.450;-2.286;2023-12-14T20:03:22;102232.13;;;12.98;100.00
23733;BME280;12047;53.450;-2.286;2023-12-14T20:08:25;102242.69;;;13.11;100.00
23733;BME280;12047;53.450;-2.286;2023-12-14T20:13:26;102243.88;;;13.07;100.00
23733;BME280;12047;53.450;-2.286;2023-12-14T20:18:27;102232.81;;;12.89;100.00
23733;BME280;12047;53.450;-2.286;2023-12-14T20:23:28;102243.88;;;13.07;100.00
23733;BME280;12047;53.450;-2.286;2023-12-14T20:28:31;102266.31;;;13.15;100.00
23733;BME280;12047;53.450;-2.286;2023-12-14T20:33:32;102276.16;;;13.02;100.00
23733;BME280;12047;53.450;-2.286;2023-12-14T20:38:33;102276.69;;;12.83;100.00
23733;BME280;12047;53.450;-2.286;2023-12-14T20:43:33;102293.44;;;12.97;100.00
23733;BME280;12047;53.450;-2.286;2023-12-14T20:48:34;102288.38;;;13.05;100.00
23733;BME280;12047;53.450;-2.286;2023-12-14T20:53:38;102292.81;;;13.17;100.00
23733;BME280;12047;53.450;-2.286;2023-12-14T20:58:38;102294.69;;;13.15;100.00
23733;BME280;12047;53.450;-2.286;2023-12-14T21:03:45;102290.47;;;13.36;100.00
23733;BME280;12047;53.450;-2.286;2023-12-14T21:08:50;102301.34;;;13.09;100.00
23733;BME280;12047;53.450;-2.286;2023-12-14T21:13:54;102311.63;;;13.14;100.00
23733;BME280;12047;53.450;-2.286;2023-12-14T21:18:54;102301.13;;;12.65;100.00
23733;BME280;12047;53.450;-2.286;2023-12-14T21:23:59;102305.72;;;12.63;100.00
23733;BME280;12047;53.450;-2.286;2023-12-14T21:29:00;102319.97;;;13.09;100.00
23733;BME280;12047;53.450;-2.286;2023-12-14T21:34:00;102320.88;;;12.97;100.00
23733;BME280;12047;53.450;-2.286;2023-12-14T21:39:01;102341.50;;;13.30;100.00
23733;BME280;12047;53.450;-2.286;2023-12-14T21:44:02;102341.50;;;12.58;100.00
23733;BME280;12047;53.450;-2.286;2023-12-14T21:49:03;102342.00;;;13.35;100.00
23733;BME280;12047;53.450;-2.286;2023-12-14T21:54:04;102344.09;;;13.54;100.00
23733;BME280;12047;53.450;-2.286;2023-12-14T21:59:04;102357.09;;;13.70;100.00
23733;BME280;12047;53.450;-2.286;2023-12-14T22:04:05;102362.13;;;13.50;100.00
23733;BME280;12047;53.450;-2.286;2023-12-14T22:09:05;102358.97;;;13.45;100.00
23733;BME280;12047;53.450;-2.286;2023-12-14T22:14:06;102362.88;;;13.63;100.00
23733;BME280;12047;53.450;-2.286;2023-12-14T22:19:06;102360.66;;;13.35;100.00
23733;BME280;12047;53.450;-2.286;2023-12-14T22:24:07;102357.13;;;13.35;100.00
23733;BME280;12047;53.450;-2.286;2023-12-14T22:29:07;102367.41;;;12.91;100.00
23733;BME280;12047;53.450;-2.286;2023-12-14T22:34:08;102362.47;;;13.11;100.00
23733;BME280;12047;53.450;-2.286;2023-12-14T22:39:09;102367.50;;;13.03;100.00
23733;BME280;12047;53.450;-2.286;2023-12-14T22:44:09;102378.72;;;13.19;100.00
23733;BME280;12047;53.450;-2.286;2023-12-14T22:49:10;102397.25;;;12.84;100.00
23733;BME280;12047;53.450;-2.286;2023-12-14T22:54:17;102388.53;;;12.82;100.00
23733;BME280;12047;53.450;-2.286;2023-12-14T22:59:17;102403.34;;;13.10;100.00
23733;BME280;12047;53.450;-2.286;2023-12-14T23:04:18;102414.69;;;12.88;100.00
23733;BME280;12047;53.450;-2.286;2023-12-14T23:09:18;102409.31;;;13.01;100.00
23733;BME280;12047;53.450;-2.286;2023-12-14T23:14:19;102420.50;;;13.06;100.00
23733;BME280;12047;53.450;-2.286;2023-12-14T23:19:20;102426.69;;;12.93;100.00
23733;BME280;12047;53.450;-2.286;2023-12-14T23:24:21;102432.63;;;12.73;100.00
23733;BME280;12047;53.450;-2.286;2023-12-14T23:29:21;102441.22;;;12.77;100.00
23733;BME280;12047;53.450;-2.286;2023-12-14T23:34:22;102442.72;;;12.81;100.00
23733;BME280;12047;53.450;-2.286;2023-12-14T23:39:22;102445.19;;;13.08;100.00
23733;BME280;12047;53.450;-2.286;2023-12-14T23:44:23;102456.41;;;12.87;100.00
23733;BME280;12047;53.450;-2.286;2023-12-14T23:49:23;102467.84;;;12.39;100.00
23733;BME280;12047;53.450;-2.286;2023-12-14T23:54:24;102474.03;;;12.39;100.00
23733;BME280;12047;53.450;-2.286;2023-12-14T23:59:24;102485.81;;;12.86;100.00
